Time;durP1;ratioP1;P1;durP2;ratioP2;P2;SDS_P1;SDS_P2;PMS_P1;PMS_P2;Temp;Humidity;BMP_temperature;BMP_pressure;BME280_temperature;BME280_humidity;BME280_pressure;Samples;Min_cycle;Max_cycle;Signal;HPM_P1;HPM_P2
2023/06/02 00:00:38;;;;;;;12.30;11.00;;;;;;;11.78;80.77;97553.98;106819;1266;22626;-76
2023/06/02 00:03:30;;;;;;;13.00;11.30;;;;;;;11.68;80.21;97549.70;106811;1277;22545;-75
2023/06/02 00:06:01;;;;;;;12.10;10.80;;;;;;;11.63;80.35;97545.63;106840;1277;22526;-77
2023/06/02 00:08:33;;;;;;;19.30;12.60;;;;;;;11.62;82.07;97545.33;106666;1275;22528;-75
2023/06/02 00:11:01;;;;;;;15.90;11.80;;;;;;;11.55;81.73;97549.41;106673;1278;22626;-74
2023/06/02 00:13:29;;;;;;;16.80;12.00;;;;;;;11.50;81.91;97548.10;106631;1277;22521;-77
2023/06/02 00:15:57;;;;;;;13.50;11.50;;;;;;;11.43;81.66;97548.98;106700;1277;23913;-76
2023/06/02 00:18:25;;;;;;;17.60;13.10;;;;;;;11.42;82.60;97548.03;106677;1277;25307;-76
2023/06/02 00:20:56;;;;;;;19.70;12.30;;;;;;;11.48;83.14;97543.89;106840;1277;25323;-76
2023/06/02 00:23:24;;;;;;;15.60;13.30;;;;;;;11.53;83.31;97544.98;106769;1277;24078;-76
2023/06/02 00:25:52;;;;;;;18.70;13.70;;;;;;;11.54;83.77;97547.21;106760;1277;22483;-75
2023/06/02 00:28:21;;;;;;;14.90;13.20;;;;;;;11.55;84.12;97542.11;106877;1270;22656;-76
2023/06/02 00:30:49;;;;;;;19.10;13.60;;;;;;;11.54;84.51;97542.90;106887;1277;23893;-76
2023/06/02 00:33:17;;;;;;;18.30;13.10;;;;;;;11.53;84.77;97546.01;106773;1277;22647;-76
2023/06/02 00:35:46;;;;;;;15.90;12.70;;;;;;;11.53;84.50;97543.79;106722;1267;23923;-77
2023/06/02 00:38:15;;;;;;;15.20;12.20;;;;;;;11.53;83.86;97542.98;106769;1278;22562;-76
2023/06/02 00:40:43;;;;;;;17.70;13.40;;;;;;;11.52;83.12;97545.71;106814;1278;22640;-76
2023/06/02 00:43:12;;;;;;;14.60;13.00;;;;;;;11.56;82.78;97543.83;106690;1278;24342;-77
2023/06/02 00:45:40;;;;;;;18.00;13.20;;;;;;;11.60;82.38;97541.70;106803;1278;25317;-77
2023/06/02 00:48:08;;;;;;;14.70;12.20;;;;;;;11.66;82.02;97545.84;106738;1278;22691;-76
2023/06/02 00:50:37;;;;;;;16.20;12.30;;;;;;;11.72;81.99;97541.52;106767;1270;25448;-76
2023/06/02 00:53:05;;;;;;;16.90;13.10;;;;;;;11.70;81.53;97543.51;106796;1277;23910;-76
2023/06/02 00:55:33;;;;;;;16.80;13.50;;;;;;;11.66;81.77;97536.45;106659;1277;25468;-76
2023/06/02 00:58:07;;;;;;;18.10;13.10;;;;;;;11.62;81.89;97537.88;106708;1277;22520;-77
2023/06/02 01:00:38;;;;;;;17.60;12.80;;;;;;;11.59;82.00;97534.98;106736;1277;22524;-76
2023/06/02 01:03:07;;;;;;;16.00;12.70;;;;;;;11.53;82.60;97531.81;106731;1277;25319;-75
2023/06/02 01:05:36;;;;;;;15.20;13.10;;;;;;;11.47;82.61;97531.06;106634;1277;22588;-76
2023/06/02 01:08:07;;;;;;;13.40;12.00;;;;;;;11.46;82.64;97528.64;106434;1278;23261;-76
2023/06/02 01:10:37;;;;;;;17.10;12.90;;;;;;;11.39;83.39;97529.69;106482;1278;25501;-76
2023/06/02 01:13:05;;;;;;;17.90;13.10;;;;;;;11.30;83.62;97533.71;106531;1278;24434;-76
2023/06/02 01:15:33;;;;;;;16.40;13.20;;;;;;;11.24;83.54;97535.53;106551;1278;22668;-76
2023/06/02 01:18:08;;;;;;;16.30;12.80;;;;;;;11.27;83.41;97530.75;106757;1278;22548;-76
2023/06/02 01:20:48;;;;;;;18.30;12.60;;;;;;;11.35;83.03;97525.80;106692;1278;24272;-76
2023/06/02 01:23:29;;;;;;;16.60;13.90;;;;;;;11.38;83.23;97526.58;106589;1278;22525;-78
2023/06/02 01:25:57;;;;;;;19.20;12.70;;;;;;;11.35;82.95;97527.83;106654;1278;24259;-76
2023/06/02 01:28:26;;;;;;;15.70;13.10;;;;;;;11.31;83.24;97526.08;106618;1278;22678;-76
2023/06/02 01:31:20;;;;;;;15.10;12.40;;;;;;;11.26;83.08;97521.83;106712;1274;22640;-76
2023/06/02 01:34:13;;;;;;;13.80;12.30;;;;;;;11.20;83.52;97525.77;106603;1277;22527;-76
2023/06/02 01:36:45;;;;;;;13.70;11.20;;;;;;;11.12;82.99;97525.77;106623;1277;22776;-76
2023/06/02 01:39:16;;;;;;;17.10;12.80;;;;;;;11.13;83.05;97530.77;106641;1273;22527;-76
2023/06/02 01:41:46;;;;;;;14.10;12.70;;;;;;;11.14;82.86;97530.52;106675;1277;25319;-76
2023/06/02 01:44:14;;;;;;;17.60;13.90;;;;;;;11.11;82.80;97532.34;106643;1277;22813;-76
2023/06/02 01:46:44;;;;;;;18.80;13.40;;;;;;;11.09;82.89;97535.79;106579;1277;25316;-76
2023/06/02 01:49:17;;;;;;;20.70;13.30;;;;;;;11.10;83.17;97538.33;106620;1277;22997;-76
2023/06/02 01:51:46;;;;;;;13.70;11.90;;;;;;;11.15;83.17;97539.17;106645;1277;22665;-76
2023/06/02 01:54:15;;;;;;;19.50;14.50;;;;;;;11.15;83.12;97537.56;106613;1277;24206;-76
2023/06/02 01:56:43;;;;;;;15.80;14.20;;;;;;;11.15;83.12;97536.65;106699;1277;25223;-76
2023/06/02 01:59:11;;;;;;;18.20;13.70;;;;;;;11.16;83.02;97538.98;106678;1277;24114;-77
2023/06/02 02:01:42;;;;;;;17.00;13.80;;;;;;;11.17;83.09;97543.11;106676;1277;25259;-76
2023/06/02 02:04:11;;;;;;;18.00;12.30;;;;;;;11.16;82.92;97544.82;106743;1277;22797;-76
2023/06/02 02:06:39;;;;;;;17.50;12.90;;;;;;;11.09;84.18;97540.90;106706;1277;22581;-76
2023/06/02 02:09:07;;;;;;;16.30;11.60;;;;;;;11.00;84.88;97540.98;106706;1270;22655;-76
2023/06/02 02:11:36;;;;;;;16.70;11.10;;;;;;;10.92;84.88;97540.80;106734;1277;22791;-76
2023/06/02 02:14:04;;;;;;;13.70;11.70;;;;;;;10.83;84.72;97541.94;106709;1277;22539;-77
2023/06/02 02:16:32;;;;;;;17.60;12.70;;;;;;;10.78;84.14;97540.52;106606;1277;25275;-76
2023/06/02 02:19:01;;;;;;;18.40;12.90;;;;;;;10.77;84.03;97541.59;106734;1253;25425;-76
2023/06/02 02:21:29;;;;;;;17.80;13.10;;;;;;;10.76;83.77;97544.79;106578;1277;24237;-76
2023/06/02 02:23:57;;;;;;;18.90;12.90;;;;;;;10.75;83.68;97546.41;106623;1270;24340;-76
2023/06/02 02:26:26;;;;;;;13.60;11.90;;;;;;;10.73;83.59;97546.57;106697;1277;22805;-75
2023/06/02 02:28:54;;;;;;;17.60;13.40;;;;;;;10.68;83.39;97544.95;106456;1277;24987;-76
2023/06/02 02:31:22;;;;;;;16.90;12.80;;;;;;;10.64;83.40;97551.59;106485;1278;24357;-76
2023/06/02 02:33:51;;;;;;;17.10;12.80;;;;;;;10.60;83.39;97550.13;106549;1278;22520;-76
2023/06/02 02:36:20;;;;;;;13.90;11.40;;;;;;;10.59;83.97;97556.46;106640;1270;22531;-76
2023/06/02 02:38:49;;;;;;;18.00;11.60;;;;;;;10.53;84.24;97556.61;106637;1277;22517;-76
2023/06/02 02:41:18;;;;;;;16.70;12.70;;;;;;;10.46;84.45;97561.52;106650;1277;22580;-76
2023/06/02 02:43:46;;;;;;;15.80;11.70;;;;;;;10.38;84.39;97562.02;106485;1277;25616;-76
2023/06/02 02:46:15;;;;;;;13.90;12.00;;;;;;;10.35;84.49;97564.25;106625;1277;22570;-75
2023/06/02 02:48:43;;;;;;;19.80;13.40;;;;;;;10.35;84.50;97566.63;106619;1277;22652;-75
2023/06/02 02:51:12;;;;;;;18.80;13.30;;;;;;;10.34;84.43;97566.96;106510;1277;24327;-75
2023/06/02 02:53:40;;;;;;;17.90;13.80;;;;;;;10.36;84.67;97568.63;106620;1277;22530;-75
2023/06/02 02:56:08;;;;;;;21.10;13.70;;;;;;;10.39;84.24;97565.23;106594;1277;22654;-75
2023/06/02 02:58:36;;;;;;;23.30;15.10;;;;;;;10.43;84.28;97571.65;106600;1277;22527;-76
2023/06/02 03:01:04;;;;;;;18.00;13.80;;;;;;;10.44;84.23;97570.02;106599;1277;25466;-76
2023/06/02 03:03:33;;;;;;;16.80;13.40;;;;;;;10.40;84.17;97568.50;106606;1277;23146;-76
2023/06/02 03:06:02;;;;;;;18.00;14.20;;;;;;;10.37;84.50;97573.20;106447;1277;23147;-76
2023/06/02 03:08:32;;;;;;;19.00;14.20;;;;;;;10.26;84.41;97574.92;106535;1278;22783;-76
2023/06/02 03:11:01;;;;;;;19.00;14.00;;;;;;;10.18;84.49;97576.20;106571;1277;24387;-76
2023/06/02 03:13:30;;;;;;;19.90;13.30;;;;;;;10.16;84.98;97582.91;106654;1277;22719;-76
2023/06/02 03:15:58;;;;;;;19.70;13.30;;;;;;;10.12;85.52;97590.16;106698;1270;25220;-76
2023/06/02 03:18:27;;;;;;;21.10;13.30;;;;;;;10.07;86.11;97591.50;106699;1277;25356;-76
2023/06/02 03:20:58;;;;;;;19.40;12.90;;;;;;;10.04;86.00;97592.20;106668;1277;22543;-76
2023/06/02 03:23:28;;;;;;;18.40;13.50;;;;;;;10.01;85.80;97595.94;106706;1277;24128;-75
2023/06/02 03:25:57;;;;;;;18.00;14.00;;;;;;;9.94;85.81;97599.41;106503;1277;23962;-76
2023/06/02 03:28:25;;;;;;;21.00;15.70;;;;;;;9.89;86.27;97603.83;106669;1277;22646;-76
2023/06/02 03:30:53;;;;;;;19.80;15.10;;;;;;;9.88;86.09;97602.57;106587;1277;22665;-77
2023/06/02 03:33:22;;;;;;;18.20;14.10;;;;;;;9.96;86.14;97610.68;106489;1277;25329;-76
2023/06/02 03:35:50;;;;;;;19.40;15.00;;;;;;;9.99;86.11;97612.33;106580;1277;22785;-76
2023/06/02 03:38:18;;;;;;;21.80;16.70;;;;;;;10.08;86.11;97611.18;106491;1277;24097;-76
2023/06/02 03:40:48;;;;;;;21.70;15.20;;;;;;;10.20;86.29;97617.82;106623;1277;23065;-76
2023/06/02 03:43:16;;;;;;;19.50;14.30;;;;;;;10.28;87.35;97621.40;106511;1277;25469;-76
2023/06/02 03:45:45;;;;;;;22.80;15.60;;;;;;;10.26;87.20;97621.68;106621;1277;25268;-75
2023/06/02 03:48:15;;;;;;;26.10;18.80;;;;;;;10.27;87.33;97625.38;106512;1277;25207;-76
2023/06/02 03:50:43;;;;;;;26.70;18.10;;;;;;;10.31;87.29;97628.75;106471;1277;24271;-76
2023/06/02 03:53:11;;;;;;;30.80;19.60;;;;;;;10.40;87.54;97630.98;106512;1277;22525;-76
2023/06/02 03:55:39;;;;;;;26.40;18.80;;;;;;;10.51;87.45;97631.59;106626;1277;22524;-76
2023/06/02 03:58:08;;;;;;;31.10;20.10;;;;;;;10.62;87.59;97637.54;106673;1277;22518;-76
2023/06/02 04:00:36;;;;;;;30.10;17.90;;;;;;;10.72;87.73;97638.28;106614;1277;24216;-76
2023/06/02 04:03:04;;;;;;;27.10;16.70;;;;;;;10.84;87.52;97637.44;106609;1277;24361;-76
2023/06/02 04:05:33;;;;;;;26.00;17.10;;;;;;;10.98;87.49;97641.70;106642;1277;26529;-76
2023/06/02 04:08:02;;;;;;;21.90;15.20;;;;;;;11.10;87.87;97643.07;106577;1277;22527;-76
2023/06/02 04:10:31;;;;;;;24.20;16.10;;;;;;;11.23;87.76;97645.28;106561;1277;22637;-76
2023/06/02 04:13:00;;;;;;;18.90;13.80;;;;;;;11.33;87.86;97649.05;106494;1277;22647;-76
2023/06/02 04:15:28;;;;;;;17.60;13.00;;;;;;;11.44;87.63;97649.27;106511;1277;25457;-76
2023/06/02 04:17:57;;;;;;;16.30;13.30;;;;;;;11.55;87.85;97650.48;106451;1277;22543;-76
2023/06/02 04:20:26;;;;;;;16.10;12.60;;;;;;;11.65;87.88;97645.51;106456;1277;22547;-76
2023/06/02 04:22:54;;;;;;;15.80;12.50;;;;;;;11.76;87.79;97649.73;106456;1277;23000;-76
2023/06/02 04:25:22;;;;;;;17.80;13.60;;;;;;;11.88;87.72;97653.39;106572;1277;24225;-76
2023/06/02 04:27:50;;;;;;;18.50;12.60;;;;;;;11.95;87.53;97648.60;106517;1277;23012;-76
2023/06/02 04:30:18;;;;;;;18.00;12.90;;;;;;;12.03;87.20;97648.05;106524;1277;24392;-76
2023/06/02 04:32:46;;;;;;;16.00;11.90;;;;;;;12.14;87.02;97650.13;106492;1277;22555;-76
2023/06/02 04:35:15;;;;;;;17.00;11.20;;;;;;;12.24;86.83;97646.69;106741;1277;22662;-76
2023/06/02 04:37:44;;;;;;;18.10;11.40;;;;;;;12.36;86.82;97648.15;106715;1277;25399;-76
2023/06/02 04:40:13;;;;;;;15.70;11.90;;;;;;;12.44;86.82;97647.77;106554;1277;23289;-76
2023/06/02 04:42:42;;;;;;;16.50;11.90;;;;;;;12.54;86.61;97646.58;106749;1277;22523;-75
2023/06/02 04:45:11;;;;;;;16.30;11.00;;;;;;;12.60;86.23;97645.02;106712;1277;24268;-75
2023/06/02 04:47:42;;;;;;;16.50;10.70;;;;;;;12.68;86.06;97641.95;106597;1277;22517;-75
2023/06/02 04:50:13;;;;;;;15.00;11.30;;;;;;;12.76;85.92;97640.08;106664;1277;23392;-75
2023/06/02 04:52:42;;;;;;;15.90;11.30;;;;;;;12.85;85.06;97645.16;106640;1262;24055;-75
2023/06/02 04:55:11;;;;;;;18.80;11.60;;;;;;;12.89;84.55;97646.27;106552;1277;22573;-76
2023/06/02 04:57:41;;;;;;;16.20;11.20;;;;;;;12.93;84.77;97644.30;106503;1277;22657;-75
2023/06/02 05:00:13;;;;;;;14.00;10.10;;;;;;;13.04;84.73;97650.48;106578;1277;25230;-75
2023/06/02 05:02:41;;;;;;;17.30;10.90;;;;;;;13.15;83.98;97648.49;106620;1277;22480;-75
2023/06/02 05:05:10;;;;;;;18.00;12.00;;;;;;;13.20;83.33;97644.66;106603;1277;22530;-76
2023/06/02 05:07:38;;;;;;;13.30;10.20;;;;;;;13.28;83.35;97649.60;106537;1277;22510;-75
2023/06/02 05:10:07;;;;;;;13.90;10.60;;;;;;;13.34;83.08;97654.18;106567;1278;22633;-75
2023/06/02 05:12:37;;;;;;;16.70;11.30;;;;;;;13.41;82.72;97651.08;106435;1278;24229;-75
2023/06/02 05:15:06;;;;;;;14.60;10.50;;;;;;;13.46;82.58;97657.02;106451;1278;22622;-76
2023/06/02 05:17:35;;;;;;;18.20;11.00;;;;;;;13.56;82.16;97662.73;106505;1278;22580;-77
2023/06/02 05:20:04;;;;;;;14.80;11.00;;;;;;;13.62;82.05;97664.58;106662;1262;22539;-75
2023/06/02 05:22:32;;;;;;;13.50;9.90;;;;;;;13.72;81.86;97667.66;106631;1278;24869;-76
2023/06/02 05:25:02;;;;;;;11.90;9.40;;;;;;;13.80;81.43;97667.59;106832;1278;23892;-76
2023/06/02 05:27:30;;;;;;;14.60;11.70;;;;;;;13.88;80.87;97672.66;106853;1277;22544;-76
2023/06/02 05:29:58;;;;;;;14.40;10.10;;;;;;;13.93;80.63;97672.83;106764;1277;22676;-75
2023/06/02 05:32:27;;;;;;;17.30;11.20;;;;;;;14.02;80.59;97671.48;106545;1277;25255;-77
2023/06/02 05:34:56;;;;;;;13.80;10.40;;;;;;;14.09;79.80;97676.36;106699;1272;22704;-75
2023/06/02 05:37:24;;;;;;;14.50;10.50;;;;;;;14.11;78.44;97678.52;106626;1277;24193;-76
2023/06/02 05:39:53;;;;;;;15.50;10.40;;;;;;;14.08;78.35;97681.52;106678;1277;23034;-77
2023/06/02 05:42:25;;;;;;;19.60;10.00;;;;;;;14.14;78.49;97682.31;106805;1277;24244;-77
2023/06/02 05:44:53;;;;;;;16.20;11.10;;;;;;;14.22;78.58;97682.11;106800;1277;25601;-76
2023/06/02 05:47:21;;;;;;;18.40;11.00;;;;;;;14.28;78.44;97688.45;106648;1277;22600;-77
2023/06/02 05:49:50;;;;;;;20.40;10.40;;;;;;;14.37;78.32;97691.05;106708;1277;24243;-77
2023/06/02 05:52:18;;;;;;;13.60;10.30;;;;;;;14.44;78.33;97696.45;106603;1277;183380;-78
2023/06/02 05:54:47;;;;;;;20.20;12.10;;;;;;;14.54;77.83;97698.71;106628;1277;25529;-76
2023/06/02 05:57:17;;;;;;;21.70;11.90;;;;;;;14.61;76.73;97702.14;106479;1277;25621;-76
2023/06/02 05:59:46;;;;;;;17.40;11.20;;;;;;;14.65;77.10;97705.56;107348;1256;23855;-79
2023/06/02 06:02:14;;;;;;;20.90;13.80;;;;;;;14.75;76.86;97702.28;106819;1277;22630;-78
2023/06/02 06:04:42;;;;;;;22.30;14.90;;;;;;;14.87;76.90;97702.56;106585;1277;22771;-75
2023/06/02 06:07:10;;;;;;;17.30;12.80;;;;;;;14.98;75.72;97706.78;106569;1277;22524;-76
2023/06/02 06:09:38;;;;;;;20.00;12.90;;;;;;;15.03;75.07;97710.83;106747;1277;22587;-77
2023/06/02 06:12:07;;;;;;;19.80;13.40;;;;;;;15.08;74.82;97710.62;106654;1277;22517;-77
2023/06/02 06:14:36;;;;;;;25.60;13.40;;;;;;;15.14;74.52;97708.29;106660;1277;22617;-79
2023/06/02 06:17:04;;;;;;;20.70;14.00;;;;;;;15.24;74.25;97703.27;106840;1277;22532;-75
2023/06/02 06:19:32;;;;;;;20.70;12.50;;;;;;;15.33;73.93;97702.89;106803;1277;25350;-74
2023/06/02 06:22:00;;;;;;;14.50;10.30;;;;;;;15.40;73.85;97704.93;106539;1277;22543;-77
2023/06/02 06:24:30;;;;;;;21.20;10.30;;;;;;;15.48;73.22;97706.14;106673;1277;22583;-75
2023/06/02 06:26:58;;;;;;;15.00;9.80;;;;;;;15.53;72.65;97710.48;106547;1277;22534;-76
2023/06/02 06:29:26;;;;;;;16.10;10.20;;;;;;;15.52;72.02;97710.23;106540;1277;25195;-76
2023/06/02 06:31:55;;;;;;;16.70;10.30;;;;;;;15.59;71.61;97710.23;107005;1277;25328;-75
2023/06/02 06:34:23;;;;;;;17.80;10.10;;;;;;;15.65;71.34;97709.50;106691;1253;25691;-74
2023/06/02 06:36:51;;;;;;;22.40;10.60;;;;;;;15.70;72.06;97708.64;106614;1277;23152;-76
2023/06/02 06:39:19;;;;;;;17.80;10.30;;;;;;;15.82;70.96;97710.59;106934;1256;25461;-78
2023/06/02 06:41:47;;;;;;;21.10;10.90;;;;;;;15.89;71.00;97709.34;107109;1277;24238;-77
2023/06/02 06:44:26;;;;;;;18.90;9.80;;;;;;;15.94;69.96;97710.73;106748;1277;25312;-77
2023/06/02 06:46:54;;;;;;;16.00;9.10;;;;;;;15.97;69.93;97709.52;107052;1277;22633;-77
2023/06/02 06:49:22;;;;;;;14.20;8.50;;;;;;;15.97;68.85;97710.35;106740;1277;25272;-78
2023/06/02 06:51:50;;;;;;;11.50;7.50;;;;;;;15.96;69.03;97711.42;107064;1277;22516;-79
2023/06/02 06:54:19;;;;;;;14.20;8.50;;;;;;;16.00;68.46;97714.20;107051;1277;22520;-79
2023/06/02 06:56:48;;;;;;;11.30;6.90;;;;;;;16.07;67.60;97716.90;107032;1277;24215;-78
2023/06/02 06:59:16;;;;;;;10.30;6.90;;;;;;;16.17;67.15;97724.77;107048;1277;22547;-80
2023/06/02 07:01:44;;;;;;;14.00;7.40;;;;;;;16.23;66.51;97723.86;107045;1257;22633;-79
2023/06/02 07:04:12;;;;;;;13.00;6.90;;;;;;;16.27;66.32;97724.32;106942;1277;22624;-78
2023/06/02 07:06:41;;;;;;;11.80;6.60;;;;;;;16.33;66.54;97722.16;106975;1277;24246;-78
2023/06/02 07:09:10;;;;;;;16.70;6.40;;;;;;;16.46;66.83;97728.15;107014;1277;24990;-78
2023/06/02 07:11:38;;;;;;;13.20;7.30;;;;;;;16.60;66.03;97725.16;107109;1277;25601;-77
2023/06/02 07:14:06;;;;;;;12.50;7.00;;;;;;;16.64;65.62;97730.66;107276;1270;22658;-79
2023/06/02 07:16:46;;;;;;;12.40;6.30;;;;;;;16.68;64.25;97728.99;107132;1277;24190;-78
2023/06/02 07:19:14;;;;;;;10.60;6.00;;;;;;;16.62;63.61;97730.36;107209;1277;22527;-79
2023/06/02 07:21:42;;;;;;;11.70;6.50;;;;;;;16.69;64.05;97726.69;107219;1272;22564;-78
2023/06/02 07:24:10;;;;;;;14.20;7.00;;;;;;;16.77;63.45;97726.23;107095;1277;23207;-78
2023/06/02 07:26:38;;;;;;;11.30;5.90;;;;;;;16.87;63.03;97722.27;107076;1277;22534;-79
2023/06/02 07:29:06;;;;;;;8.60;6.00;;;;;;;16.94;61.96;97725.24;107127;1277;23174;-78
2023/06/02 07:31:34;;;;;;;11.70;5.90;;;;;;;16.93;61.15;97729.27;107084;1277;22529;-77
2023/06/02 07:34:03;;;;;;;11.10;6.30;;;;;;;16.93;60.40;97732.55;107182;1277;23924;-77
2023/06/02 07:36:31;;;;;;;13.20;6.60;;;;;;;16.94;60.04;97730.16;107048;1277;25495;-77
2023/06/02 07:38:59;;;;;;;11.90;6.90;;;;;;;17.06;60.08;97732.08;107191;1277;22633;-76
2023/06/02 07:41:27;;;;;;;30.30;6.80;;;;;;;17.12;59.35;97730.52;106785;1277;22528;-78
2023/06/02 07:43:57;;;;;;;9.20;5.60;;;;;;;17.20;59.05;97726.94;107161;1277;22892;-80
2023/06/02 07:46:25;;;;;;;12.00;5.80;;;;;;;17.25;58.83;97724.13;107098;1277;22534;-77
2023/06/02 07:48:54;;;;;;;11.10;5.90;;;;;;;17.30;59.41;97721.39;107055;1277;22781;-77
2023/06/02 07:51:22;;;;;;;10.50;5.90;;;;;;;17.37;58.86;97723.92;107116;1271;24187;-79
2023/06/02 07:53:50;;;;;;;12.80;6.50;;;;;;;17.41;59.12;97717.56;107183;1277;22525;-77
2023/06/02 07:56:18;;;;;;;11.00;5.60;;;;;;;17.52;58.08;97724.48;107511;1277;24055;-80
2023/06/02 07:58:48;;;;;;;11.30;6.90;;;;;;;17.55;57.51;97727.66;107074;1278;22504;-77
2023/06/02 08:01:51;;;;;;;16.10;6.30;;;;;;;17.60;56.55;97729.58;106675;1267;24232;-76
2023/06/02 08:04:58;;;;;;;14.60;7.40;;;;;;;17.56;56.75;97725.27;107442;1277;25207;-77
2023/06/02 08:08:02;;;;;;;10.50;6.70;;;;;;;17.64;56.89;97732.59;107157;1277;22520;-77
2023/06/02 08:10:59;;;;;;;11.10;6.70;;;;;;;17.65;56.57;97728.23;106850;1277;25505;-82
2023/06/02 08:13:49;;;;;;;15.70;5.90;;;;;;;17.55;56.20;97726.42;107147;1277;22532;-82
2023/06/02 08:16:48;;;;;;;11.60;6.90;;;;;;;17.52;57.67;97730.80;106959;1277;22520;-83
2023/06/02 08:19:49;;;;;;;9.50;6.50;;;;;;;17.64;56.87;97733.98;106910;1277;22545;-82
2023/06/02 08:22:52;;;;;;;12.90;6.50;;;;;;;17.62;57.01;97733.38;106886;1277;23284;-78
2023/06/02 08:25:48;;;;;;;8.60;6.50;;;;;;;17.64;57.95;97740.60;106969;1267;22531;-78
2023/06/02 08:28:50;;;;;;;13.00;6.10;;;;;;;17.82;57.08;97732.83;107102;1277;22539;-80
2023/06/02 08:31:52;;;;;;;11.80;6.90;;;;;;;17.86;57.09;97739.48;107209;1278;22533;-86
2023/06/02 08:34:56;;;;;;;11.50;6.90;;;;;;;17.96;57.34;97741.38;106706;1282;23616;-81
2023/06/02 08:37:25;;;;;;;9.90;6.60;;;;;;;18.07;57.62;97740.40;106761;1282;22534;-83
2023/06/02 08:39:53;;;;;;;14.40;7.00;;;;;;;18.28;57.20;97741.09;106692;1282;22523;-83
2023/06/02 08:42:24;;;;;;;11.60;6.80;;;;;;;18.37;56.38;97735.67;106708;1259;25509;-83
2023/06/02 08:44:53;;;;;;;12.60;6.60;;;;;;;18.45;56.83;97738.36;106756;1282;22534;-82
2023/06/02 08:47:27;;;;;;;12.70;6.40;;;;;;;18.53;57.09;97730.13;106659;1282;22654;-84
2023/06/02 08:50:02;;;;;;;14.00;7.00;;;;;;;18.65;56.62;97735.45;106764;1282;22734;-82
2023/06/02 08:52:32;;;;;;;15.00;7.50;;;;;;;18.57;55.65;97740.34;106707;1282;22711;-82
2023/06/02 08:55:03;;;;;;;9.90;7.00;;;;;;;18.52;55.50;97741.02;106641;1282;24203;-83
2023/06/02 08:57:32;;;;;;;9.70;6.90;;;;;;;18.68;55.75;97732.17;106686;1282;22532;-83
2023/06/02 09:00:03;;;;;;;11.40;6.40;;;;;;;18.78;54.98;97739.91;106778;1282;24465;-84
2023/06/02 09:02:32;;;;;;;12.40;6.50;;;;;;;18.67;54.45;97736.52;106846;1277;25309;-80
2023/06/02 09:05:03;;;;;;;11.40;5.70;;;;;;;18.60;55.12;97738.61;107065;1277;22627;-80
2023/06/02 09:07:31;;;;;;;10.10;6.00;;;;;;;18.57;54.70;97742.22;107222;1262;22549;-81
2023/06/02 09:10:00;;;;;;;13.50;6.40;;;;;;;18.41;54.16;97748.64;107320;1277;26538;-80
2023/06/02 09:12:28;;;;;;;10.90;5.60;;;;;;;18.29;54.52;97750.14;107214;1277;24184;-80
2023/06/02 09:15:11;;;;;;;14.20;6.10;;;;;;;18.35;54.60;97746.06;106815;1277;23494;-81
2023/06/02 09:17:39;;;;;;;9.10;5.40;;;;;;;18.47;54.44;97742.92;108527;1277;22538;-81
2023/06/02 09:20:11;;;;;;;12.60;5.90;;;;;;;18.42;54.54;97752.39;106802;1277;22523;-80
2023/06/02 09:22:57;;;;;;;12.80;5.80;;;;;;;18.34;54.61;97749.39;108362;1265;22543;-80
2023/06/02 09:25:28;;;;;;;10.60;5.40;;;;;;;18.34;55.00;97751.11;109081;1275;22646;-81
2023/06/02 09:27:58;;;;;;;13.50;6.40;;;;;;;18.37;54.74;97750.64;106921;1272;22543;-79
2023/06/02 09:30:28;;;;;;;10.30;6.00;;;;;;;18.37;53.99;97753.67;107521;1278;22541;-81
2023/06/02 09:32:58;;;;;;;12.90;5.40;;;;;;;18.30;53.70;97747.98;106632;1278;22960;-80
2023/06/02 09:35:41;;;;;;;11.60;5.80;;;;;;;18.34;53.74;97753.29;106520;1278;22662;-80
2023/06/02 09:38:11;;;;;;;10.30;5.50;;;;;;;18.38;53.99;97750.42;106528;1278;24219;-80
2023/06/02 09:40:41;;;;;;;12.10;5.20;;;;;;;18.41;53.66;97749.55;106639;1278;22528;-81
2023/06/02 09:43:11;;;;;;;9.50;5.40;;;;;;;18.42;53.46;97749.96;106831;1271;22593;-81
2023/06/02 09:46:00;;;;;;;9.80;5.30;;;;;;;18.53;53.39;97748.60;107080;1277;22533;-82
2023/06/02 09:48:29;;;;;;;13.90;6.20;;;;;;;18.68;53.88;97745.41;107055;1277;22562;-82
2023/06/02 09:50:58;;;;;;;9.00;5.70;;;;;;;18.68;52.83;97751.11;107311;1277;23829;-83
2023/06/02 09:53:27;;;;;;;14.20;5.90;;;;;;;18.54;52.73;97749.80;107219;1277;25329;-81
2023/06/02 09:55:55;;;;;;;9.50;5.20;;;;;;;18.55;53.49;97750.91;107130;1277;22574;-82
2023/06/02 09:58:23;;;;;;;10.30;5.60;;;;;;;18.67;53.40;97745.10;106937;1277;25350;-83
2023/06/02 10:00:51;;;;;;;15.00;5.60;;;;;;;18.76;53.09;97742.91;107026;1277;22545;-82
2023/06/02 10:03:19;;;;;;;16.40;5.80;;;;;;;18.83;53.56;97744.23;107031;1277;26561;-82
2023/06/02 10:06:07;;;;;;;10.40;5.40;;;;;;;18.94;53.02;97746.41;107004;1277;22806;-82
2023/06/02 10:08:53;;;;;;;9.20;5.20;;;;;;;18.91;52.52;97742.83;107353;1277;25261;-82
2023/06/02 10:11:34;;;;;;;13.60;6.00;;;;;;;18.91;52.31;97743.93;107430;1277;24452;-83
2023/06/02 10:14:18;;;;;;;13.60;8.00;;;;;;;18.84;51.55;97745.73;107419;1277;22517;-83
2023/06/02 10:17:14;;;;;;;10.80;6.30;;;;;;;18.81;51.68;97746.30;107297;1277;23389;-82
2023/06/02 10:20:04;;;;;;;9.00;5.30;;;;;;;18.78;51.78;97746.77;107257;1277;22672;-84
2023/06/02 10:22:32;;;;;;;8.20;4.90;;;;;;;18.73;51.44;97752.49;107079;1278;22528;-84
2023/06/02 10:25:19;;;;;;;12.40;5.30;;;;;;;18.61;51.45;97749.86;107066;1269;25325;-83
2023/06/02 10:27:48;;;;;;;11.60;6.00;;;;;;;18.57;51.28;97753.45;107256;1277;22636;-80
2023/06/02 10:30:24;;;;;;;15.40;5.90;;;;;;;18.53;51.59;97755.45;106779;1277;22544;-83
2023/06/02 10:32:53;;;;;;;11.20;6.80;;;;;;;18.54;51.42;97751.58;107017;1277;22606;-80
2023/06/02 10:35:22;;;;;;;8.50;5.00;;;;;;;18.56;51.27;97751.55;107172;1277;25198;-81
2023/06/02 10:38:36;;;;;;;11.50;5.30;;;;;;;18.55;51.43;97749.73;107114;1277;22598;-84
2023/06/02 10:41:05;;;;;;;9.60;5.60;;;;;;;18.58;51.32;97761.11;107220;1277;22536;-81
2023/06/02 10:43:34;;;;;;;13.30;6.20;;;;;;;18.51;51.57;97756.27;107185;1277;22517;-81
2023/06/02 10:46:21;;;;;;;9.80;4.90;;;;;;;18.52;51.99;97757.31;107101;1277;22522;-81
2023/06/02 10:48:50;;;;;;;9.60;5.30;;;;;;;18.59;52.13;97758.46;107132;1277;24222;-81
2023/06/02 10:51:18;;;;;;;12.30;5.80;;;;;;;18.68;51.87;97755.02;107095;1277;22517;-82
2023/06/02 10:54:06;;;;;;;10.70;5.20;;;;;;;18.73;50.86;97761.38;107143;1277;22550;-82
2023/06/02 10:56:40;;;;;;;12.90;5.40;;;;;;;18.72;50.93;97751.91;107045;1277;22524;-81
2023/06/02 10:59:10;;;;;;;11.30;4.90;;;;;;;18.82;51.48;97755.59;107143;1278;25375;-82
2023/06/02 11:01:49;;;;;;;14.10;4.80;;;;;;;18.99;51.63;97762.11;107153;1278;22535;-83
2023/06/02 11:04:26;;;;;;;9.60;5.00;;;;;;;19.12;51.10;97761.39;107106;1278;22537;-84
2023/06/02 11:07:23;;;;;;;9.00;4.50;;;;;;;19.04;49.70;97761.15;107023;1278;25595;-82
2023/06/02 11:09:54;;;;;;;9.00;4.50;;;;;;;18.97;50.10;97759.35;107055;1275;22541;-81
2023/06/02 11:12:50;;;;;;;10.20;5.00;;;;;;;19.00;50.13;97764.49;107037;1278;25327;-81
2023/06/02 11:15:19;;;;;;;8.30;4.60;;;;;;;18.96;49.81;97763.77;107115;1269;22540;-82
2023/06/02 11:17:47;;;;;;;10.80;5.30;;;;;;;18.98;50.80;97763.97;107051;1278;24225;-82
2023/06/02 11:20:17;;;;;;;11.20;4.90;;;;;;;19.10;51.03;97760.33;107078;1278;24234;-83
2023/06/02 11:22:46;;;;;;;12.80;5.20;;;;;;;19.17;51.00;97763.73;107248;1277;23924;-82
2023/06/02 11:25:16;;;;;;;9.60;5.00;;;;;;;19.17;50.84;97762.35;107380;1277;23264;-82
2023/06/02 11:27:46;;;;;;;11.50;4.50;;;;;;;19.10;50.41;97772.51;107304;1263;22785;-81
2023/06/02 11:30:17;;;;;;;10.70;5.00;;;;;;;18.96;49.66;97774.85;107407;1260;24202;-84
2023/06/02 11:32:49;;;;;;;7.40;4.60;;;;;;;18.87;50.26;97772.63;107289;1272;25296;-80
2023/06/02 11:35:25;;;;;;;10.80;5.00;;;;;;;18.96;49.95;97771.41;107392;1277;24763;-81